createdAt,value
2022-12-25T00:01:56.299Z,99080.72
2022-12-25T00:04:24.011Z,99085.14
2022-12-25T00:06:51.697Z,99085.68
2022-12-25T00:09:19.512Z,99090.33
2022-12-25T00:11:47.270Z,99098.05
2022-12-25T00:14:14.988Z,99100.46
2022-12-25T00:16:42.845Z,99095.92
2022-12-25T00:19:10.530Z,99095.84
2022-12-25T00:21:38.402Z,99108.88
2022-12-25T00:24:06.482Z,99114.46
2022-12-25T00:26:34.161Z,99122.73
2022-12-25T00:29:01.822Z,99122.04
2022-12-25T00:31:29.553Z,99116.20
2022-12-25T00:33:57.265Z,99126.81
2022-12-25T00:36:25.062Z,99128.20
2022-12-25T00:38:52.834Z,99137.04
2022-12-25T00:41:43.267Z,99146.77
2022-12-25T00:44:13.641Z,99149.42
2022-12-25T00:46:42.236Z,99157.04
2022-12-25T00:49:11.315Z,99161.29
2022-12-25T00:51:39.566Z,99160.86
2022-12-25T00:54:07.605Z,99156.19
2022-12-25T00:56:35.384Z,99162.23
2022-12-25T00:59:03.136Z,99163.77
2022-12-25T01:01:30.945Z,99168.44
2022-12-25T01:03:59.660Z,99170.50
2022-12-25T01:06:27.790Z,99178.77
2022-12-25T01:09:14.285Z,99178.93
2022-12-25T01:11:41.920Z,99174.70
2022-12-25T01:14:09.769Z,99172.49
2022-12-25T01:16:37.628Z,99168.75
2022-12-25T01:19:05.460Z,99164.48
2022-12-25T01:21:33.654Z,99167.45
2022-12-25T01:24:01.390Z,99168.34
2022-12-25T01:26:29.108Z,99167.08
2022-12-25T01:28:56.824Z,99167.86
2022-12-25T01:31:24.694Z,99175.17
2022-12-25T01:33:52.898Z,99168.13
2022-12-25T01:36:23.313Z,99173.36
2022-12-25T01:38:52.244Z,99167.02
2022-12-25T01:41:21.841Z,99167.35
2022-12-25T01:43:58.589Z,99169.28
2022-12-25T01:46:26.313Z,99173.48
2022-12-25T01:48:54.513Z,99183.18
2022-12-25T01:51:30.735Z,99186.11
2022-12-25T01:54:00.232Z,99185.09
2022-12-25T01:56:29.000Z,99185.91
2022-12-25T01:58:57.405Z,99175.73
2022-12-25T02:01:25.613Z,99178.21
2022-12-25T02:03:56.915Z,99178.11
2022-12-25T02:06:24.788Z,99178.66
2022-12-25T02:08:52.469Z,99180.23
2022-12-25T02:11:38.967Z,99182.38
2022-12-25T02:14:06.633Z,99181.83
2022-12-25T02:16:57.839Z,99186.26
2022-12-25T02:19:52.461Z,99190.34
2022-12-25T02:22:37.297Z,99183.74
2022-12-25T02:25:26.790Z,99185.61
2022-12-25T02:28:14.296Z,99193.04
2022-12-25T02:30:51.648Z,99205.05
2022-12-25T02:33:50.243Z,99204.44
2022-12-25T02:36:22.399Z,99203.22
2022-12-25T02:39:12.919Z,99208.13
2022-12-25T02:41:43.572Z,99217.69
2022-12-25T02:44:35.906Z,99214.67
2022-12-25T02:47:23.330Z,99217.22
2022-12-25T02:50:10.700Z,99218.55
2022-12-25T02:52:57.715Z,99219.86
2022-12-25T02:55:49.468Z,99217.78
2022-12-25T02:58:39.626Z,99214.34
2022-12-25T03:01:31.577Z,99212.81
2022-12-25T03:04:21.045Z,99210.00
2022-12-25T03:07:05.124Z,99204.38
2022-12-25T03:09:59.378Z,99206.14
2022-12-25T03:12:44.222Z,99211.98
2022-12-25T03:15:31.150Z,99214.85
2022-12-25T03:18:02.079Z,99214.01
2022-12-25T03:20:49.305Z,99224.35
2022-12-25T03:23:38.690Z,99225.80
2022-12-25T03:26:26.206Z,99231.27
2022-12-25T03:28:53.877Z,99242.52
2022-12-25T03:31:42.350Z,99242.80
2022-12-25T03:34:47.893Z,99246.91
2022-12-25T03:37:44.695Z,99249.44
2022-12-25T03:40:48.022Z,99246.37
2022-12-25T03:43:47.690Z,99248.54
2022-12-25T03:46:56.222Z,99244.57
2022-12-25T03:49:46.371Z,99238.91
2022-12-25T03:52:35.589Z,99242.05
2022-12-25T03:55:27.804Z,99246.80
2022-12-25T03:58:14.224Z,99252.55
2022-12-25T04:01:00.808Z,99257.17
2022-12-25T04:03:47.256Z,99261.41
2022-12-25T04:06:33.698Z,99270.45
2022-12-25T04:09:20.226Z,99275.59
2022-12-25T04:12:06.664Z,99279.17
2022-12-25T04:14:53.435Z,99281.67
2022-12-25T04:17:39.745Z,99279.46
2022-12-25T04:20:26.817Z,99280.05
2022-12-25T04:23:13.334Z,99281.73
2022-12-25T04:25:59.856Z,99279.99
2022-12-25T04:28:46.624Z,99277.70
2022-12-25T04:31:33.094Z,99278.63
2022-12-25T04:34:19.733Z,99279.41
2022-12-25T04:36:47.456Z,99279.05
2022-12-25T04:39:15.149Z,99280.40
2022-12-25T04:41:42.839Z,99282.70
2022-12-25T04:44:10.575Z,99283.93
2022-12-25T04:46:38.354Z,99291.35
2022-12-25T04:49:06.237Z,99289.49
2022-12-25T04:51:33.846Z,99293.09
2022-12-25T04:54:01.553Z,99293.02
2022-12-25T04:56:29.197Z,99292.92
2022-12-25T04:58:56.951Z,99299.11
2022-12-25T05:01:24.751Z,99293.80
2022-12-25T05:03:52.815Z,99298.79
2022-12-25T05:06:20.584Z,99297.89
2022-12-25T05:08:48.260Z,99296.63
2022-12-25T05:11:16.658Z,99298.96
2022-12-25T05:13:44.735Z,99299.89
2022-12-25T05:16:18.278Z,99298.70
2022-12-25T05:18:48.794Z,99302.28
2022-12-25T05:21:17.090Z,99296.98
2022-12-25T05:23:51.249Z,99299.81
2022-12-25T05:26:22.572Z,99300.62
2022-12-25T05:28:50.420Z,99303.42
2022-12-25T05:31:19.291Z,99313.84
2022-12-25T05:33:51.447Z,99313.90
2022-12-25T05:36:19.687Z,99320.05
2022-12-25T05:38:47.334Z,99316.55
2022-12-25T05:41:15.012Z,99312.83
2022-12-25T05:43:42.840Z,99311.14
2022-12-25T05:46:10.762Z,99312.06
2022-12-25T05:48:38.748Z,99311.45
2022-12-25T05:51:07.888Z,99311.46
2022-12-25T05:53:36.395Z,99311.52
2022-12-25T05:56:06.312Z,99322.28
2022-12-25T05:58:35.783Z,99332.81
2022-12-25T06:01:04.319Z,99341.40
2022-12-25T06:03:32.007Z,99344.08
2022-12-25T06:05:59.672Z,99343.14
2022-12-25T06:08:27.310Z,99348.15
2022-12-25T06:10:54.962Z,99353.37
2022-12-25T06:13:22.593Z,99350.30
2022-12-25T06:15:50.231Z,99358.02
2022-12-25T06:18:17.938Z,99367.18
2022-12-25T06:20:45.581Z,99362.45
2022-12-25T06:23:13.485Z,99373.83
2022-12-25T06:25:41.227Z,99375.48
2022-12-25T06:28:08.885Z,99378.63
2022-12-25T06:30:36.589Z,99374.67
2022-12-25T06:33:04.284Z,99378.42
2022-12-25T06:35:31.975Z,99387.81
2022-12-25T06:37:59.646Z,99392.98
2022-12-25T06:40:27.294Z,99398.55
2022-12-25T06:42:54.984Z,99405.27
2022-12-25T06:45:22.696Z,99409.17
2022-12-25T06:47:50.603Z,99414.20
2022-12-25T06:50:18.403Z,99419.34
2022-12-25T06:52:46.017Z,99418.55
2022-12-25T06:55:13.754Z,99418.09
2022-12-25T06:57:41.489Z,99421.35
2022-12-25T07:00:10.187Z,99435.15
2022-12-25T07:02:38.687Z,99442.19
2022-12-25T07:05:07.074Z,99447.37
2022-12-25T07:07:34.680Z,99450.94
2022-12-25T07:10:02.339Z,99450.41
2022-12-25T07:12:30.062Z,99458.34
2022-12-25T07:14:57.700Z,99460.61
2022-12-25T07:17:25.438Z,99460.73
2022-12-25T07:19:53.132Z,99461.86
2022-12-25T07:22:20.769Z,99464.41
2022-12-25T07:24:48.463Z,99477.09
2022-12-25T07:27:16.115Z,99478.74
2022-12-25T07:29:43.763Z,99483.29
2022-12-25T07:32:11.454Z,99483.72
2022-12-25T07:34:39.208Z,99488.98
2022-12-25T07:37:06.879Z,99489.80
2022-12-25T07:39:35.400Z,99495.17
2022-12-25T07:42:03.431Z,99496.49
2022-12-25T07:44:31.140Z,99499.69
2022-12-25T07:46:58.808Z,99500.02
2022-12-25T07:49:26.533Z,99502.13
2022-12-25T07:51:54.186Z,99496.02
2022-12-25T07:54:21.909Z,99496.89
2022-12-25T07:56:53.053Z,99493.97
2022-12-25T07:59:20.887Z,99498.00
2022-12-25T08:01:50.468Z,99502.44
2022-12-25T08:04:18.428Z,99505.98
2022-12-25T08:06:46.236Z,99508.64
2022-12-25T08:09:14.010Z,99510.08
2022-12-25T08:11:46.784Z,99518.13
2022-12-25T08:14:15.173Z,99512.36
2022-12-25T08:16:42.992Z,99515.92
2022-12-25T08:19:12.232Z,99516.89
2022-12-25T08:21:39.875Z,99516.34
2022-12-25T08:24:07.693Z,99518.41
2022-12-25T08:26:35.361Z,99522.36
2022-12-25T08:29:03.441Z,99524.59
2022-12-25T08:31:33.426Z,99530.50
2022-12-25T08:34:02.530Z,99533.65
2022-12-25T08:36:30.629Z,99531.91
2022-12-25T08:39:02.725Z,99539.04
2022-12-25T08:41:32.221Z,99536.53
2022-12-25T08:43:59.971Z,99531.07
2022-12-25T08:46:27.661Z,99534.44
2022-12-25T08:48:56.702Z,99538.55
2022-12-25T08:51:26.018Z,99539.86
2022-12-25T08:53:58.799Z,99540.20
2022-12-25T08:56:26.788Z,99542.27
2022-12-25T08:58:54.665Z,99544.41
2022-12-25T09:01:22.338Z,99550.58
2022-12-25T09:03:50.538Z,99555.20
2022-12-25T09:06:18.589Z,99556.59
2022-12-25T09:08:49.445Z,99559.96
2022-12-25T09:11:19.568Z,99562.73
2022-12-25T09:13:48.794Z,99562.20
2022-12-25T09:16:20.384Z,99562.40
2022-12-25T09:18:48.860Z,99562.98
2022-12-25T09:21:17.285Z,99561.70
2022-12-25T09:23:45.203Z,99562.88
2022-12-25T09:26:15.036Z,99564.39
2022-12-25T09:28:50.308Z,99560.27
2022-12-25T09:31:20.919Z,99561.35
2022-12-25T09:33:49.764Z,99564.43
2022-12-25T09:36:18.121Z,99562.46
2022-12-25T09:38:45.855Z,99567.80
2022-12-25T09:41:17.927Z,99565.75
2022-12-25T09:43:57.616Z,99568.51
2022-12-25T09:46:33.052Z,99567.48
2022-12-25T09:49:30.750Z,99559.30
2022-12-25T09:52:05.342Z,99562.77
2022-12-25T09:54:56.789Z,99564.82
2022-12-25T09:57:26.242Z,99562.16
2022-12-25T09:59:55.512Z,99560.46
2022-12-25T10:02:40.624Z,99564.88
2022-12-25T10:05:34.741Z,99567.44
2022-12-25T10:08:12.739Z,99569.06
2022-12-25T10:11:02.102Z,99570.56
2022-12-25T10:13:54.393Z,99570.00
2022-12-25T10:16:53.703Z,99565.94
2022-12-25T10:19:30.061Z,99565.40
2022-12-25T10:22:00.890Z,99564.35
2022-12-25T10:24:58.255Z,99562.34
2022-12-25T10:27:33.541Z,99560.15
2022-12-25T10:30:02.369Z,99563.90
2022-12-25T10:32:30.051Z,99565.42
2022-12-25T10:34:57.737Z,99568.08
2022-12-25T10:37:25.410Z,99567.78
2022-12-25T10:39:53.010Z,99563.70
2022-12-25T10:42:37.384Z,99560.88
2022-12-25T10:45:08.169Z,99558.52
2022-12-25T10:47:39.064Z,99551.64
2022-12-25T10:50:19.311Z,99548.90
2022-12-25T10:53:05.250Z,99548.96
2022-12-25T10:55:33.396Z,99544.23
2022-12-25T10:58:02.241Z,99547.33
2022-12-25T11:00:31.911Z,99546.41
2022-12-25T11:03:00.040Z,99543.86
2022-12-25T11:05:31.379Z,99546.14
2022-12-25T11:08:01.021Z,99554.71
2022-12-25T11:10:31.971Z,99553.83
2022-12-25T11:13:00.500Z,99547.30
2022-12-25T11:15:39.745Z,99546.45
2022-12-25T11:18:26.506Z,99542.56
2022-12-25T11:20:55.413Z,99537.70
2022-12-25T11:23:25.333Z,99541.02
2022-12-25T11:26:04.888Z,99538.05
2022-12-25T11:28:35.639Z,99544.22
2022-12-25T11:31:19.762Z,99540.50
2022-12-25T11:34:00.866Z,99545.59
2022-12-25T11:36:45.517Z,99542.89
2022-12-25T11:39:26.954Z,99545.05
2022-12-25T11:42:22.907Z,99541.56
2022-12-25T11:45:10.078Z,99533.88
2022-12-25T11:47:42.223Z,99526.82
2022-12-25T11:50:20.938Z,99526.75
2022-12-25T11:52:49.764Z,99528.08
2022-12-25T11:55:26.797Z,99525.81
2022-12-25T11:57:59.437Z,99525.91
2022-12-25T12:00:29.377Z,99529.90
2022-12-25T12:03:01.204Z,99531.50
2022-12-25T12:05:39.158Z,99538.00
2022-12-25T12:08:06.796Z,99530.73
2022-12-25T12:10:40.666Z,99534.35
2022-12-25T12:13:23.942Z,99541.02
2022-12-25T12:15:51.680Z,99537.27
2022-12-25T12:18:20.968Z,99536.67
2022-12-25T12:21:07.529Z,99544.20
2022-12-25T12:23:49.214Z,99545.89
2022-12-25T12:26:27.516Z,99544.73
2022-12-25T12:29:00.828Z,99551.14
2022-12-25T12:31:41.198Z,99552.71
2022-12-25T12:34:42.472Z,99548.77
2022-12-25T12:37:24.592Z,99545.71
2022-12-25T12:39:54.104Z,99548.27
2022-12-25T12:42:29.661Z,99542.79
2022-12-25T12:45:07.940Z,99534.37
2022-12-25T12:47:42.145Z,99527.90
2022-12-25T12:50:32.805Z,99531.30
2022-12-25T12:53:13.682Z,99530.05
2022-12-25T12:55:41.382Z,99534.05
2022-12-25T12:58:13.025Z,99535.41
2022-12-25T13:00:52.587Z,99537.46
2022-12-25T13:03:34.927Z,99538.35
2022-12-25T13:06:12.657Z,99535.95
2022-12-25T13:09:06.736Z,99542.53
2022-12-25T13:11:41.859Z,99545.55
2022-12-25T13:14:18.884Z,99540.73
2022-12-25T13:16:48.439Z,99546.17
2022-12-25T13:19:25.817Z,99547.64
2022-12-25T13:22:04.775Z,99551.69
2022-12-25T13:24:34.605Z,99552.79
2022-12-25T13:27:21.318Z,99549.89
2022-12-25T13:29:48.986Z,99548.83
2022-12-25T13:32:32.357Z,99552.23
2022-12-25T13:35:00.443Z,99548.23
2022-12-25T13:37:30.531Z,99551.94
2022-12-25T13:40:01.339Z,99553.84
2022-12-25T13:42:36.824Z,99561.14
2022-12-25T13:45:13.677Z,99566.38
2022-12-25T13:47:51.404Z,99568.23
2022-12-25T13:50:34.259Z,99572.21
2022-12-25T13:53:13.487Z,99565.48
2022-12-25T13:55:42.141Z,99561.60
2022-12-25T13:58:25.374Z,99556.83
2022-12-25T14:00:56.790Z,99554.83
2022-12-25T14:03:29.221Z,99557.92
2022-12-25T14:05:59.358Z,99555.16
2022-12-25T14:08:31.986Z,99556.34
2022-12-25T14:11:03.707Z,99554.63
2022-12-25T14:13:33.484Z,99551.37
2022-12-25T14:16:01.548Z,99553.71
2022-12-25T14:18:30.154Z,99550.50
2022-12-25T14:21:14.808Z,99554.89
2022-12-25T14:23:47.461Z,99553.09
2022-12-25T14:26:30.049Z,99551.92
2022-12-25T14:29:13.977Z,99550.45
2022-12-25T14:31:46.174Z,99553.34
2022-12-25T14:34:21.030Z,99554.02
2022-12-25T14:36:49.915Z,99556.39
2022-12-25T14:39:34.864Z,99563.10
2022-12-25T14:42:14.002Z,99575.81
2022-12-25T14:44:41.799Z,99578.61
2022-12-25T14:47:18.293Z,99581.79
2022-12-25T14:49:47.054Z,99589.17
2022-12-25T14:52:20.870Z,99581.33
2022-12-25T14:55:05.593Z,99569.82
2022-12-25T14:57:48.438Z,99566.55
2022-12-25T15:00:37.577Z,99571.23
2022-12-25T15:03:17.549Z,99566.05
2022-12-25T15:05:45.357Z,99556.42
2022-12-25T15:08:13.143Z,99554.29
2022-12-25T15:13:30.421Z,99556.06
2022-12-25T15:16:01.071Z,99559.70
2022-12-25T15:18:33.682Z,99562.36
2022-12-25T15:21:01.402Z,99567.00
2022-12-25T15:23:29.160Z,99570.11
2022-12-25T15:25:56.789Z,99574.77
2022-12-25T15:28:24.521Z,99570.60
2022-12-25T15:30:52.227Z,99572.89
2022-12-25T15:33:19.916Z,99580.55
2022-12-25T15:35:47.804Z,99585.58
2022-12-25T15:38:15.474Z,99582.79
2022-12-25T15:40:43.268Z,99591.35
2022-12-25T15:43:39.376Z,99591.74
2022-12-25T15:46:03.103Z,99593.70
2022-12-25T15:48:30.749Z,99588.84
2022-12-25T15:50:58.441Z,99580.17
2022-12-25T15:53:27.001Z,99579.70
2022-12-25T15:55:54.789Z,99575.27
2022-12-25T15:58:22.433Z,99574.39
2022-12-25T16:00:50.642Z,99575.15
2022-12-25T16:03:18.436Z,99571.80
2022-12-25T16:05:46.140Z,99571.08
2022-12-25T16:08:13.828Z,99575.18
2022-12-25T16:10:41.542Z,99573.77
2022-12-25T16:13:09.219Z,99574.13
2022-12-25T16:15:37.016Z,99574.54
2022-12-25T16:18:05.235Z,99568.86
2022-12-25T16:20:34.173Z,99561.89
2022-12-25T16:23:01.814Z,99554.47
2022-12-25T16:25:31.767Z,99557.46
2022-12-25T16:27:59.390Z,99557.72
2022-12-25T16:30:27.121Z,99551.83
2022-12-25T16:32:55.184Z,99547.11
2022-12-25T16:35:22.895Z,99542.29
2022-12-25T16:37:50.643Z,99537.06
2022-12-25T16:40:18.404Z,99529.39
2022-12-25T16:42:46.191Z,99528.83
2022-12-25T16:45:14.136Z,99522.89
2022-12-25T16:47:41.858Z,99525.77
2022-12-25T16:50:10.023Z,99525.84
2022-12-25T16:52:37.792Z,99523.89
2022-12-25T16:55:06.019Z,99526.41
2022-12-25T16:57:33.957Z,99512.63
2022-12-25T17:00:01.653Z,99498.30
2022-12-25T17:02:29.732Z,99496.32
2022-12-25T17:04:57.985Z,99492.16
2022-12-25T17:07:25.792Z,99505.73
2022-12-25T17:09:53.519Z,99516.81
2022-12-25T17:12:21.231Z,99522.04
2022-12-25T17:14:48.860Z,99530.04
2022-12-25T17:17:16.630Z,99540.73
2022-12-25T17:19:44.445Z,99546.86
2022-12-25T17:22:12.175Z,99534.91
2022-12-25T17:24:41.492Z,99536.59
2022-12-25T17:27:09.346Z,99537.08
2022-12-25T17:29:41.217Z,99523.88
2022-12-25T17:32:14.364Z,99525.79
2022-12-25T17:34:42.055Z,99534.45
2022-12-25T17:37:09.725Z,99535.01
2022-12-25T17:39:37.387Z,99539.28
2022-12-25T17:42:05.193Z,99536.20
2022-12-25T17:44:34.080Z,99537.27
2022-12-25T17:47:01.814Z,99539.41
2022-12-25T17:49:29.640Z,99533.17
2022-12-25T17:51:57.448Z,99527.11
2022-12-25T17:54:25.190Z,99529.20
2022-12-25T17:56:53.157Z,99517.61
2022-12-25T17:59:28.196Z,99512.23
2022-12-25T18:01:56.008Z,99504.67
2022-12-25T18:04:24.474Z,99504.40
2022-12-25T18:06:52.254Z,99506.45
2022-12-25T18:09:20.011Z,99507.59
2022-12-25T18:11:49.502Z,99511.87
2022-12-25T18:14:17.310Z,99515.53
2022-12-25T18:16:45.403Z,99514.28
2022-12-25T18:19:14.607Z,99511.84
2022-12-25T18:21:42.382Z,99505.84
2022-12-25T18:24:10.164Z,99498.05
2022-12-25T18:26:38.031Z,99486.33
2022-12-25T18:29:07.034Z,99487.82
2022-12-25T18:31:35.701Z,99490.59
2022-12-25T18:34:04.433Z,99475.90
2022-12-25T18:36:32.185Z,99476.84
2022-12-25T18:38:59.964Z,99481.73
2022-12-25T18:41:28.876Z,99486.93
2022-12-25T18:43:57.272Z,99478.10
2022-12-25T18:46:26.338Z,99472.14
2022-12-25T18:48:55.962Z,99466.04
2022-12-25T18:51:24.126Z,99471.54
2022-12-25T18:53:51.925Z,99478.31
2022-12-25T18:56:20.727Z,99473.55
2022-12-25T18:58:48.496Z,99462.17
2022-12-25T19:01:19.442Z,99454.30
2022-12-25T19:03:49.252Z,99457.84
2022-12-25T19:06:25.318Z,99452.96
2022-12-25T19:08:54.125Z,99440.98
2022-12-25T19:11:22.759Z,99436.95
2022-12-25T19:13:50.455Z,99438.73
2022-12-25T19:16:18.334Z,99437.78
2022-12-25T19:18:46.295Z,99431.23
2022-12-25T19:21:15.885Z,99423.55
2022-12-25T19:23:44.383Z,99425.23
2022-12-25T19:26:12.260Z,99424.84
2022-12-25T19:28:40.428Z,99417.73
2022-12-25T19:31:12.256Z,99413.73
2022-12-25T19:33:42.003Z,99414.20
2022-12-25T19:36:12.500Z,99413.63
2022-12-25T19:38:40.793Z,99412.56
2022-12-25T19:41:11.010Z,99409.02
2022-12-25T19:43:40.405Z,99406.68
2022-12-25T19:46:15.754Z,99398.88
2022-12-25T19:48:44.146Z,99389.38
2022-12-25T19:51:21.016Z,99392.69
2022-12-25T19:53:49.089Z,99385.33
2022-12-25T19:56:18.311Z,99379.28
2022-12-25T19:58:47.365Z,99387.05
2022-12-25T20:01:18.275Z,99385.23
2022-12-25T20:03:47.720Z,99376.84
2022-12-25T20:06:24.936Z,99366.21
2022-12-25T20:08:55.584Z,99371.10
2022-12-25T20:11:25.346Z,99371.20
2022-12-25T20:13:53.603Z,99382.01
2022-12-25T20:16:24.078Z,99381.73
2022-12-25T20:18:52.652Z,99378.72
2022-12-25T20:21:22.998Z,99379.88
2022-12-25T20:23:52.330Z,99374.98
2022-12-25T20:26:22.891Z,99377.83
2022-12-25T20:28:52.845Z,99376.38
2022-12-25T20:31:21.594Z,99371.63
2022-12-25T20:33:50.238Z,99374.73
2022-12-25T20:36:18.898Z,99379.55
2022-12-25T20:38:46.983Z,99375.98
2022-12-25T20:41:27.459Z,99369.70
2022-12-25T20:43:56.886Z,99364.52
2022-12-25T20:46:25.640Z,99350.08
2022-12-25T20:48:54.262Z,99341.20
2022-12-25T20:51:24.178Z,99334.91
2022-12-25T20:53:52.848Z,99329.77
2022-12-25T20:56:27.070Z,99316.69
2022-12-25T20:58:55.838Z,99323.10
2022-12-25T21:01:23.751Z,99333.94
2022-12-25T21:03:52.079Z,99336.59
2022-12-25T21:06:20.515Z,99326.02
2022-12-25T21:08:48.475Z,99322.75
2022-12-25T21:11:17.631Z,99321.55
2022-12-25T21:13:46.740Z,99315.67
2022-12-25T21:16:18.648Z,99312.52
2022-12-25T21:18:47.905Z,99302.41
2022-12-25T21:21:15.888Z,99296.27
2022-12-25T21:23:44.088Z,99291.65
2022-12-25T21:26:24.175Z,99285.11
2022-12-25T21:28:57.404Z,99287.23
2022-12-25T21:31:25.644Z,99289.86
2022-12-25T21:33:55.224Z,99290.14
2022-12-25T21:36:28.982Z,99294.08
2022-12-25T21:39:00.950Z,99287.40
2022-12-25T21:41:30.530Z,99283.88
2022-12-25T21:43:59.141Z,99283.64
2022-12-25T21:46:27.889Z,99279.70
2022-12-25T21:48:55.931Z,99282.93
2022-12-25T21:51:45.065Z,99273.21
2022-12-25T21:54:13.757Z,99270.94
2022-12-25T21:56:44.955Z,99261.10
2022-12-25T21:59:16.071Z,99255.45
2022-12-25T22:01:44.330Z,99250.20
2022-12-25T22:04:14.493Z,99246.70
2022-12-25T22:07:02.060Z,99243.55
2022-12-25T22:09:29.813Z,99237.40
2022-12-25T22:12:17.464Z,99228.88
2022-12-25T22:14:56.359Z,99221.58
2022-12-25T22:17:45.809Z,99221.55
2022-12-25T22:20:19.175Z,99219.13
2022-12-25T22:22:48.327Z,99207.17
2022-12-25T22:25:16.634Z,99198.84
2022-12-25T22:27:45.651Z,99192.52
2022-12-25T22:30:19.752Z,99185.79
2022-12-25T22:32:48.292Z,99176.34
2022-12-25T22:35:17.346Z,99172.08
2022-12-25T22:37:45.573Z,99160.61
2022-12-25T22:40:15.097Z,99157.00
2022-12-25T22:42:42.958Z,99159.27
2022-12-25T22:45:11.494Z,99152.96
2022-12-25T22:47:39.269Z,99156.54
2022-12-25T22:50:07.589Z,99161.01
2022-12-25T22:52:36.519Z,99159.29
2022-12-25T22:55:05.453Z,99164.70
2022-12-25T22:57:33.520Z,99169.98
2022-12-25T23:00:01.300Z,99168.21
2022-12-25T23:02:29.547Z,99164.88
2022-12-25T23:04:57.638Z,99168.76
2022-12-25T23:07:25.265Z,99171.42
2022-12-25T23:09:52.946Z,99159.27
2022-12-25T23:12:39.383Z,99147.88
2022-12-25T23:15:07.568Z,99142.77
2022-12-25T23:17:53.987Z,99148.02
2022-12-25T23:20:40.478Z,99143.13
2022-12-25T23:23:31.459Z,99135.80
2022-12-25T23:26:08.545Z,99133.90
2022-12-25T23:28:56.535Z,99137.77
2022-12-25T23:31:42.726Z,99135.05
2022-12-25T23:34:10.585Z,99134.86
2022-12-25T23:36:38.430Z,99130.70
2022-12-25T23:39:10.144Z,99125.97
2022-12-25T23:41:39.900Z,99123.85
2022-12-25T23:44:08.547Z,99114.36
2022-12-25T23:46:36.282Z,99117.17
2022-12-25T23:49:04.538Z,99119.59
2022-12-25T23:51:32.266Z,99120.56
2022-12-25T23:53:59.960Z,99130.35
2022-12-25T23:56:27.707Z,99133.39
2022-12-25T23:58:55.412Z,99128.80
